PROFILE

 METAR AND TAF INFORMATION
ADDS - METARS form results

(2256 UTC 24 May 2018)

 
BGBW 242250Z AUTO 23007KT 9999NDV BKN075/// 02/M04 Q1010

 AIRPORT MAP

 RUNWAY INFORMATION
Runway 07 Runway length 6004 ft Runway width 148 ft
Runway elevation 11 ft Runway displaced threshold 0 ft Runway heading 41
Runway 25 Runway length 6004 ft Runway width 148 ft
Runway elevation 112 ft Runway displaced threshold 0 ft Runway heading 221

 AIRPORT FREQUENCIES
Type AFIS Name AFIS Frequency 119.1 MHZ

 AIRPORT NEAR NAVIGATION AIDS
Type NDB Name Narsarsuaq Frequency 359 KHZ
Type DME Name Narsarsuaq Frequency 111850 KHZ